Terminal Aerodrome Forecast
Issued by NWS

Home | Current Version | Previous Version | Text Only | Print | Product List | Glossary Off
Versions: 1 2 3 4 5 6 7 8 9 10 11 12 13 14 15 16 17 18 19

000
FTUS43 KMPX 211651 AAB
TAFRWF
TAF AMD
KRWF 211651Z 2117/2212 08005KT 2SM BR OVC002
     FM212000 VRB03KT 1 1/2SM BR OVC003
     FM220200 VRB02KT 1/4SM FG VV002=

USA.gov is the U.S. government's official web portal to all federal, state and local government web resources and services.